Pagrindinis puslapis
METAR-TAF:

METAR-TAF

Oro uostai :

Guadalupe Mountains National Park

Pine Springs, Teksasas, Jungtinės Amerikos Valstijos

platuma: 31-49-52N, ilguma: 104-48-32W, Aukštis: 1661 m

Dabartinis oras

Ataskaita buvo paskelbta 40 minutes, ne 15:51 UTC
Vėjas 7 kt iš Rytų
Temperatūra 21°C
Drėgmė 69%
Slėgis 1027 hPa
Matomumas: 8.0 km
Mažai debesys ne aukštis 1800 ft
Išsisklaidę debesys ne aukštis 10000 ft
migla

METAR: KGDP 031551Z AUTO 09007KT 5SM HZ FEW018 SCT100 21/15 A3032 RMK AO2 SLP201 T02060150

Laikas: 11:31 (16:31 UTC)


TAF: trūkstamas

Orai ataskaitas ir orų prognozės (METAR, TAF).

turimą stotys yra geltonos ir raudonos taškus žemėlapyje.

Perkelti pele per norėdami pamatyti stoties vardą.

Tada spustelėkite, norėdami matyti oro stebėjimo ir prognozės.

Norėdami pakeisti žemėlapį: spustelėkite ant žalios mygtukų su juodo kryžiaus žemyn,; žalią mygtuką su brūkšneliu, jei norite nutolinti; arba žalių rodyklių gretimoms žemėlapius.


METAR-TAF: